createdAt,value
2019-03-03T00:01:13.548Z,21.20
2019-03-03T00:03:53.371Z,21.60
2019-03-03T00:06:33.399Z,19.55
2019-03-03T00:09:13.211Z,20.12
2019-03-03T00:11:53.100Z,20.40
2019-03-03T00:14:33.029Z,19.70
2019-03-03T00:17:12.888Z,19.48
2019-03-03T00:19:53.669Z,19.12
2019-03-03T00:22:33.664Z,19.32
2019-03-03T00:25:13.763Z,19.10
2019-03-03T00:27:53.675Z,18.80
2019-03-03T00:30:33.656Z,17.70
2019-03-03T00:33:13.503Z,17.82
2019-03-03T00:35:53.271Z,17.00
2019-03-03T00:38:43.092Z,16.52
2019-03-03T00:41:55.790Z,17.50
2019-03-03T00:44:47.442Z,16.48
2019-03-03T00:48:06.537Z,16.32
2019-03-03T00:50:53.545Z,15.15
2019-03-03T00:54:04.314Z,16.55
2019-03-03T00:56:59.619Z,15.60
2019-03-03T00:59:45.678Z,15.43
2019-03-03T01:02:44.486Z,15.78
2019-03-03T01:05:51.492Z,14.93
2019-03-03T01:08:59.532Z,14.45
2019-03-03T01:11:57.039Z,16.05
2019-03-03T01:14:53.376Z,14.55
2019-03-03T01:17:47.444Z,13.93
2019-03-03T01:20:53.031Z,14.85
2019-03-03T01:23:51.292Z,14.20
2019-03-03T01:26:32.863Z,13.75
2019-03-03T01:29:13.139Z,13.72
2019-03-03T01:31:53.109Z,12.78
2019-03-03T01:34:32.867Z,13.58
2019-03-03T01:37:12.697Z,13.62
2019-03-03T01:39:53.661Z,12.88
2019-03-03T01:42:33.633Z,12.98
2019-03-03T01:45:13.619Z,12.63
2019-03-03T01:47:53.491Z,12.30
2019-03-03T01:50:33.337Z,11.95
2019-03-03T01:53:13.305Z,13.05
2019-03-03T01:55:53.213Z,11.83
2019-03-03T01:58:33.213Z,12.45
2019-03-03T02:01:13.315Z,12.28
2019-03-03T02:03:53.586Z,12.10
2019-03-03T02:06:33.361Z,12.37
2019-03-03T02:09:14.801Z,12.10
2019-03-03T02:11:58.214Z,11.88
2019-03-03T02:14:37.991Z,11.40
2019-03-03T02:17:17.749Z,11.83
2019-03-03T02:19:57.976Z,11.30
2019-03-03T02:22:37.916Z,11.90
2019-03-03T02:25:19.068Z,11.00
2019-03-03T02:27:58.918Z,11.35
2019-03-03T02:30:39.365Z,11.63
2019-03-03T02:33:20.189Z,10.98
2019-03-03T02:36:00.049Z,10.78
2019-03-03T02:38:39.865Z,11.03
2019-03-03T02:41:19.782Z,11.70
2019-03-03T02:43:59.461Z,10.88
2019-03-03T02:46:39.623Z,10.88
2019-03-03T02:49:19.423Z,11.65
2019-03-03T02:51:59.547Z,9.98
2019-03-03T02:54:39.356Z,9.60
2019-03-03T02:57:19.152Z,10.23
2019-03-03T02:59:58.899Z,10.70
2019-03-03T03:02:45.339Z,10.08
2019-03-03T03:05:35.067Z,9.50
2019-03-03T03:08:19.107Z,10.40
2019-03-03T03:11:21.656Z,10.00
2019-03-03T03:14:07.762Z,9.83
2019-03-03T03:17:05.721Z,9.65
2019-03-03T03:20:01.440Z,8.35
2019-03-03T03:23:00.026Z,9.08
2019-03-03T03:26:06.727Z,8.48
2019-03-03T03:29:04.531Z,8.35
2019-03-03T03:32:01.625Z,9.33
2019-03-03T03:34:46.842Z,8.63
2019-03-03T03:37:59.069Z,8.70
2019-03-03T03:40:53.741Z,7.78
2019-03-03T03:43:40.715Z,9.00
2019-03-03T03:46:31.112Z,8.58
2019-03-03T03:49:21.292Z,7.87
2019-03-03T03:52:25.302Z,8.75
2019-03-03T03:55:19.791Z,7.83
2019-03-03T03:58:06.097Z,7.75
2019-03-03T04:01:05.065Z,7.33
2019-03-03T04:04:02.654Z,7.53
2019-03-03T04:06:48.665Z,7.40
2019-03-03T04:09:32.418Z,8.13
2019-03-03T04:12:30.363Z,6.70
2019-03-03T04:15:35.443Z,6.55
2019-03-03T04:18:54.612Z,7.28
2019-03-03T04:21:54.504Z,6.17
2019-03-03T04:24:41.570Z,5.70
2019-03-03T04:27:30.679Z,6.15
2019-03-03T04:30:16.715Z,5.70
2019-03-03T04:33:24.347Z,5.22
2019-03-03T04:36:21.636Z,5.20
2019-03-03T04:39:19.413Z,5.65
2019-03-03T04:42:17.076Z,4.35
2019-03-03T04:45:12.284Z,4.00
2019-03-03T04:48:00.940Z,4.22
2019-03-03T04:51:08.637Z,4.60
2019-03-03T04:54:06.813Z,4.35
2019-03-03T04:56:57.416Z,4.22
2019-03-03T04:59:54.906Z,4.67
2019-03-03T05:02:53.249Z,4.40
2019-03-03T05:05:43.875Z,3.98
2019-03-03T05:08:31.745Z,3.55
2019-03-03T05:11:33.281Z,3.95
2019-03-03T05:14:28.285Z,4.22
2019-03-03T05:17:15.060Z,3.85
2019-03-03T05:19:58.093Z,4.35
2019-03-03T05:22:38.210Z,3.80
2019-03-03T05:25:18.076Z,3.70
2019-03-03T05:27:57.824Z,3.67
2019-03-03T05:30:37.886Z,3.80
2019-03-03T05:33:18.111Z,3.62
2019-03-03T05:35:57.888Z,3.77
2019-03-03T05:38:37.862Z,3.52
2019-03-03T05:41:17.603Z,3.77
2019-03-03T05:43:57.548Z,3.20
2019-03-03T05:46:37.298Z,3.45
2019-03-03T05:49:18.161Z,3.83
2019-03-03T05:51:57.870Z,4.25
2019-03-03T05:54:37.816Z,3.55
2019-03-03T05:57:17.581Z,3.77
2019-03-03T05:59:57.467Z,3.70
2019-03-03T06:02:38.393Z,3.50
2019-03-03T06:05:18.270Z,3.60
2019-03-03T06:07:58.087Z,3.67
2019-03-03T06:10:38.166Z,3.58
2019-03-03T06:13:17.786Z,3.50
2019-03-03T06:15:57.800Z,3.17
2019-03-03T06:18:37.617Z,3.37
2019-03-03T06:21:17.392Z,3.17
2019-03-03T06:23:57.326Z,3.22
2019-03-03T06:26:37.204Z,3.37
2019-03-03T06:29:17.105Z,3.20
2019-03-03T06:31:57.224Z,3.33
2019-03-03T06:34:36.951Z,3.20
2019-03-03T06:37:16.866Z,3.72
2019-03-03T06:39:56.668Z,3.67
2019-03-03T06:42:36.739Z,3.67
2019-03-03T06:45:17.852Z,3.90
2019-03-03T06:47:57.531Z,3.80
2019-03-03T06:50:37.269Z,4.05
2019-03-03T06:53:17.120Z,3.98
2019-03-03T06:55:56.905Z,4.00
2019-03-03T06:58:36.955Z,4.60
2019-03-03T07:01:16.631Z,4.53
2019-03-03T07:03:56.968Z,5.05
2019-03-03T07:06:36.814Z,4.60
2019-03-03T07:09:16.787Z,4.58
2019-03-03T07:11:56.629Z,4.67
2019-03-03T07:14:36.634Z,5.25
2019-03-03T07:17:16.323Z,5.33
2019-03-03T07:19:56.034Z,4.33
2019-03-03T07:22:36.938Z,4.53
2019-03-03T07:25:16.781Z,5.20
2019-03-03T07:27:56.577Z,4.90
2019-03-03T07:30:37.393Z,5.00
2019-03-03T07:33:20.858Z,4.58
2019-03-03T07:36:00.751Z,4.28
2019-03-03T07:38:40.480Z,5.67
2019-03-03T07:41:20.411Z,3.87
2019-03-03T07:43:59.909Z,4.13
2019-03-03T07:46:39.524Z,4.40
2019-03-03T07:49:19.035Z,4.00
2019-03-03T07:51:58.606Z,4.07
2019-03-03T07:54:38.074Z,3.77
2019-03-03T07:57:18.123Z,3.83
2019-03-03T07:59:57.932Z,4.17
2019-03-03T08:02:38.028Z,4.80
2019-03-03T08:05:18.734Z,4.45
2019-03-03T08:07:58.564Z,4.20
2019-03-03T08:10:38.314Z,3.83
2019-03-03T08:13:18.358Z,3.77
2019-03-03T08:15:58.118Z,3.50
2019-03-03T08:18:39.516Z,3.95
2019-03-03T08:21:20.453Z,3.65
2019-03-03T08:24:00.512Z,4.00
2019-03-03T08:26:40.266Z,4.25
2019-03-03T08:29:19.773Z,3.80
2019-03-03T08:31:59.539Z,3.55
2019-03-03T08:34:39.276Z,4.12
2019-03-03T08:37:23.659Z,3.03
2019-03-03T08:40:03.225Z,4.90
2019-03-03T08:43:00.607Z,5.80
2019-03-03T08:46:02.256Z,3.53
2019-03-03T08:48:59.693Z,3.67
2019-03-03T08:51:50.710Z,3.30
2019-03-03T08:54:50.726Z,3.17
2019-03-03T08:57:52.443Z,3.20
2019-03-03T09:00:38.094Z,3.50
2019-03-03T09:03:23.904Z,3.40
2019-03-03T09:06:25.204Z,3.07
2019-03-03T09:09:25.324Z,3.00
2019-03-03T09:12:29.659Z,3.20
2019-03-03T09:15:14.757Z,3.17
2019-03-03T09:18:08.078Z,2.77
2019-03-03T09:21:00.151Z,3.60
2019-03-03T09:23:57.656Z,2.87
2019-03-03T09:26:54.808Z,5.90
2019-03-03T09:29:40.254Z,2.93
2019-03-03T09:32:48.789Z,7.62
2019-03-03T09:35:41.943Z,2.70
2019-03-03T09:38:29.174Z,3.10
2019-03-03T09:41:19.350Z,3.52
2019-03-03T09:44:10.552Z,3.77
2019-03-03T09:47:05.289Z,3.07
2019-03-03T09:50:10.790Z,3.57
2019-03-03T09:53:16.798Z,4.25
2019-03-03T09:56:10.742Z,5.35
2019-03-03T09:59:27.539Z,2.80
2019-03-03T10:02:38.570Z,2.35
2019-03-03T10:05:43.596Z,3.65
2019-03-03T10:08:30.662Z,3.27
2019-03-03T10:11:27.806Z,3.20
2019-03-03T10:14:24.617Z,3.23
2019-03-03T10:17:16.848Z,3.10
2019-03-03T10:20:15.296Z,3.40
2019-03-03T10:23:10.608Z,2.90
2019-03-03T10:26:00.101Z,3.63
2019-03-03T10:28:51.084Z,2.97
2019-03-03T10:31:39.386Z,2.90
2019-03-03T10:34:56.627Z,3.20
2019-03-03T10:37:45.385Z,3.13
2019-03-03T10:40:43.799Z,2.93
2019-03-03T10:43:29.751Z,2.93
2019-03-03T10:46:27.050Z,2.77
2019-03-03T10:49:16.013Z,3.13
2019-03-03T10:52:10.478Z,2.77
2019-03-03T10:55:15.634Z,3.10
2019-03-03T10:58:12.611Z,2.50
2019-03-03T11:01:02.463Z,2.50
2019-03-03T11:03:50.806Z,3.00
2019-03-03T11:06:54.675Z,3.50
2019-03-03T11:09:51.930Z,3.47
2019-03-03T11:12:59.662Z,2.80
2019-03-03T11:15:55.709Z,3.27
2019-03-03T11:18:56.190Z,3.27
2019-03-03T11:21:52.471Z,2.80
2019-03-03T11:24:50.294Z,3.13
2019-03-03T11:27:54.578Z,2.60
2019-03-03T11:30:52.008Z,3.07
2019-03-03T11:33:51.319Z,2.87
2019-03-03T11:36:43.759Z,3.80
2019-03-03T11:39:45.485Z,2.80
2019-03-03T11:42:42.487Z,2.60
2019-03-03T11:45:40.889Z,3.33
2019-03-03T11:48:26.244Z,2.70
2019-03-03T11:51:09.917Z,2.80
2019-03-03T11:54:14.569Z,2.87
2019-03-03T11:57:01.828Z,2.70
2019-03-03T12:00:00.774Z,3.07
2019-03-03T12:03:02.184Z,2.57
2019-03-03T12:06:09.859Z,14.23
2019-03-03T12:09:07.197Z,3.93
2019-03-03T12:12:08.650Z,2.70
2019-03-03T12:15:10.653Z,7.37
2019-03-03T12:18:00.313Z,2.87
2019-03-03T12:20:48.178Z,3.03
2019-03-03T12:23:53.005Z,4.77
2019-03-03T12:26:52.852Z,4.57
2019-03-03T12:29:52.113Z,2.50
2019-03-03T12:32:37.318Z,4.50
2019-03-03T12:35:41.608Z,2.73
2019-03-03T12:38:43.042Z,2.63
2019-03-03T12:41:31.591Z,2.90
2019-03-03T12:44:22.821Z,2.57
2019-03-03T12:47:12.828Z,3.63
2019-03-03T12:50:03.929Z,2.80
2019-03-03T12:52:52.150Z,2.60
2019-03-03T12:55:40.457Z,2.87
2019-03-03T12:58:30.275Z,2.50
2019-03-03T13:01:23.738Z,2.97
2019-03-03T13:04:15.034Z,2.67
2019-03-03T13:07:04.314Z,2.97
2019-03-03T13:10:02.679Z,2.87
2019-03-03T13:13:01.071Z,3.20
2019-03-03T13:15:59.978Z,4.10
2019-03-03T13:18:48.458Z,2.87
2019-03-03T13:22:00.844Z,5.03
2019-03-03T13:25:02.356Z,2.67
2019-03-03T13:28:03.784Z,3.20
2019-03-03T13:31:02.372Z,2.63
2019-03-03T13:33:59.915Z,3.20
2019-03-03T13:36:49.468Z,2.80
2019-03-03T13:39:54.280Z,3.07
2019-03-03T13:42:52.356Z,2.30
2019-03-03T13:45:35.926Z,2.50
2019-03-03T13:48:16.487Z,2.77
2019-03-03T13:50:56.182Z,2.70
2019-03-03T13:53:39.023Z,2.83
2019-03-03T13:56:18.964Z,2.83
2019-03-03T13:58:58.526Z,3.03
2019-03-03T14:01:38.991Z,7.35
2019-03-03T14:04:18.809Z,3.40
2019-03-03T14:06:58.478Z,4.80
2019-03-03T14:09:37.947Z,4.10
2019-03-03T14:12:17.744Z,3.52
2019-03-03T14:14:57.170Z,3.23
2019-03-03T14:17:36.574Z,2.80
2019-03-03T14:20:20.246Z,4.10
2019-03-03T14:23:00.028Z,4.85
2019-03-03T14:25:39.950Z,4.50
2019-03-03T14:28:19.588Z,3.27
2019-03-03T14:30:59.170Z,4.37
2019-03-03T14:33:39.292Z,3.40
2019-03-03T14:36:19.195Z,4.00
2019-03-03T14:38:58.931Z,3.43
2019-03-03T14:41:38.915Z,3.85
2019-03-03T14:44:18.571Z,3.00
2019-03-03T14:46:59.662Z,3.53
2019-03-03T14:49:39.476Z,4.00
2019-03-03T14:52:19.085Z,3.70
2019-03-03T14:54:59.528Z,4.10
2019-03-03T14:57:39.051Z,3.70
2019-03-03T15:00:31.425Z,3.22
2019-03-03T15:03:11.468Z,3.47
2019-03-03T15:05:51.342Z,3.45
2019-03-03T15:08:33.456Z,3.83
2019-03-03T15:11:13.768Z,3.27
2019-03-03T15:13:53.704Z,3.20
2019-03-03T15:16:33.609Z,2.90
2019-03-03T15:19:14.349Z,3.40
2019-03-03T15:21:53.815Z,3.03
2019-03-03T15:24:35.627Z,3.80
2019-03-03T15:27:15.841Z,3.25
2019-03-03T15:29:55.560Z,2.90
2019-03-03T15:32:38.073Z,2.85
2019-03-03T15:35:19.413Z,2.62
2019-03-03T15:37:59.019Z,3.00
2019-03-03T15:40:38.928Z,3.17
2019-03-03T15:43:18.813Z,2.67
2019-03-03T15:45:58.208Z,2.80
2019-03-03T15:48:39.049Z,2.65
2019-03-03T15:51:18.771Z,2.92
2019-03-03T15:53:58.395Z,2.90
2019-03-03T15:56:40.978Z,3.33
2019-03-03T15:59:21.008Z,2.77
2019-03-03T16:02:02.402Z,3.02
2019-03-03T16:04:42.028Z,2.70
2019-03-03T16:07:24.761Z,2.60
2019-03-03T16:10:04.916Z,2.75
2019-03-03T16:12:44.702Z,2.33
2019-03-03T16:15:29.746Z,2.70
2019-03-03T16:18:09.476Z,2.65
2019-03-03T16:20:49.646Z,2.92
2019-03-03T16:23:29.445Z,3.02
2019-03-03T16:26:09.271Z,2.70
2019-03-03T16:28:48.957Z,2.90
2019-03-03T16:31:29.065Z,3.15
2019-03-03T16:34:08.870Z,3.30
2019-03-03T16:36:48.861Z,2.80
2019-03-03T16:39:28.481Z,3.35
2019-03-03T16:42:08.210Z,2.70
2019-03-03T16:44:47.978Z,3.62
2019-03-03T16:47:28.079Z,3.65
2019-03-03T16:50:10.405Z,2.80
2019-03-03T16:52:50.617Z,2.85
2019-03-03T16:55:30.288Z,3.05
2019-03-03T16:58:10.294Z,2.70
2019-03-03T17:00:50.185Z,3.20
2019-03-03T17:03:30.960Z,2.70
2019-03-03T17:06:10.788Z,3.08
2019-03-03T17:08:50.503Z,3.25
2019-03-03T17:11:30.227Z,2.87
2019-03-03T17:14:10.007Z,3.15
2019-03-03T17:16:49.669Z,2.85
2019-03-03T17:19:30.784Z,2.80
2019-03-03T17:22:11.821Z,2.77
2019-03-03T17:24:51.608Z,2.70
2019-03-03T17:27:33.756Z,2.80
2019-03-03T17:30:17.024Z,2.80
2019-03-03T17:33:04.105Z,2.60
2019-03-03T17:35:44.731Z,2.92
2019-03-03T17:38:24.574Z,2.83
2019-03-03T17:41:04.334Z,3.20
2019-03-03T17:43:44.120Z,3.15
2019-03-03T17:46:25.598Z,3.98
2019-03-03T17:49:05.425Z,3.58
2019-03-03T17:51:45.174Z,2.75
2019-03-03T17:54:24.949Z,2.70
2019-03-03T17:57:04.865Z,2.60
2019-03-03T17:59:47.193Z,3.08
2019-03-03T18:02:26.929Z,2.87
2019-03-03T18:05:07.430Z,3.02
2019-03-03T18:07:47.536Z,2.77
2019-03-03T18:10:27.366Z,3.00
2019-03-03T18:13:08.376Z,2.83
2019-03-03T18:15:48.068Z,2.33
2019-03-03T18:18:28.772Z,2.58
2019-03-03T18:21:08.630Z,2.87
2019-03-03T18:23:48.414Z,2.62
2019-03-03T18:26:27.782Z,3.12
2019-03-03T18:29:07.579Z,2.95
2019-03-03T18:31:47.384Z,2.77
2019-03-03T18:34:27.337Z,2.52
2019-03-03T18:37:07.041Z,3.10
2019-03-03T18:39:47.094Z,2.92
2019-03-03T18:42:26.797Z,2.75
2019-03-03T18:45:10.062Z,2.70
2019-03-03T18:47:50.058Z,2.83
2019-03-03T18:50:29.924Z,2.67
2019-03-03T18:53:10.062Z,2.98
2019-03-03T18:55:50.010Z,2.30
2019-03-03T18:58:31.466Z,2.47
2019-03-03T19:01:18.766Z,2.70
2019-03-03T19:03:58.616Z,3.12
2019-03-03T19:06:38.559Z,2.70
2019-03-03T19:09:21.832Z,2.58
2019-03-03T19:12:01.917Z,3.50
2019-03-03T19:14:44.315Z,2.10
2019-03-03T19:17:24.319Z,2.30
2019-03-03T19:20:09.192Z,2.27
2019-03-03T19:22:51.524Z,2.20
2019-03-03T19:25:31.383Z,2.40
2019-03-03T19:28:12.032Z,2.72
2019-03-03T19:30:52.764Z,2.30
2019-03-03T19:33:46.711Z,2.30
2019-03-03T19:36:26.648Z,2.37
2019-03-03T19:39:07.667Z,2.10
2019-03-03T19:41:48.994Z,2.50
2019-03-03T19:44:37.520Z,2.10
2019-03-03T19:47:17.329Z,2.05
2019-03-03T19:49:58.539Z,2.15
2019-03-03T19:52:38.291Z,1.90
2019-03-03T19:55:18.710Z,3.67
2019-03-03T19:57:59.296Z,2.30
2019-03-03T20:00:40.097Z,2.17
2019-03-03T20:03:19.872Z,3.58
2019-03-03T20:05:59.769Z,2.10
2019-03-03T20:08:39.665Z,2.40
2019-03-03T20:11:19.659Z,1.90
2019-03-03T20:13:59.640Z,3.05
2019-03-03T20:16:39.664Z,2.15
2019-03-03T20:19:19.572Z,2.20
2019-03-03T20:22:07.559Z,2.00
2019-03-03T20:24:48.160Z,2.12
2019-03-03T20:27:27.999Z,1.98
2019-03-03T20:30:11.633Z,1.98
2019-03-03T20:32:52.319Z,2.00
2019-03-03T20:35:32.249Z,1.98
2019-03-03T20:38:13.573Z,2.10
2019-03-03T20:40:53.325Z,1.90
2019-03-03T20:43:33.266Z,1.92
2019-03-03T20:46:14.179Z,1.70
2019-03-03T20:48:54.063Z,1.60
2019-03-03T20:51:35.962Z,1.67
2019-03-03T20:54:16.514Z,1.70
2019-03-03T20:56:56.374Z,1.98
2019-03-03T20:59:36.235Z,1.95
2019-03-03T21:02:16.226Z,1.77
2019-03-03T21:04:57.368Z,1.92
2019-03-03T21:07:37.403Z,1.98
2019-03-03T21:10:19.562Z,2.02
2019-03-03T21:12:59.552Z,2.37
2019-03-03T21:15:42.530Z,2.15
2019-03-03T21:18:23.025Z,1.80
2019-03-03T21:21:03.300Z,1.90
2019-03-03T21:23:43.069Z,1.80
2019-03-03T21:26:22.989Z,1.90
2019-03-03T21:29:02.825Z,2.02
2019-03-03T21:31:42.771Z,1.85
2019-03-03T21:34:25.440Z,2.50
2019-03-03T21:37:05.473Z,2.15
2019-03-03T21:39:45.114Z,1.82
2019-03-03T21:42:24.965Z,2.15
2019-03-03T21:45:05.872Z,2.55
2019-03-03T21:47:46.061Z,2.02
2019-03-03T21:50:28.806Z,2.10
2019-03-03T21:53:08.575Z,2.20
2019-03-03T21:55:48.258Z,2.55
2019-03-03T21:58:28.158Z,2.58
2019-03-03T22:01:08.773Z,2.42
2019-03-03T22:03:48.808Z,2.22
2019-03-03T22:06:30.320Z,2.00
2019-03-03T22:09:10.814Z,2.50
2019-03-03T22:11:52.089Z,1.70
2019-03-03T22:14:32.757Z,2.10
2019-03-03T22:17:12.463Z,2.50
2019-03-03T22:19:52.366Z,2.37
2019-03-03T22:22:32.264Z,2.65
2019-03-03T22:25:13.119Z,2.30
2019-03-03T22:27:53.021Z,2.30
2019-03-03T22:30:32.824Z,2.30
2019-03-03T22:33:16.916Z,2.45
2019-03-03T22:35:56.716Z,2.02
2019-03-03T22:38:36.595Z,2.70
2019-03-03T22:41:16.309Z,2.05
2019-03-03T22:43:56.176Z,2.30
2019-03-03T22:46:35.900Z,2.35
2019-03-03T22:49:15.779Z,2.60
2019-03-03T22:51:55.517Z,2.27
2019-03-03T22:54:35.264Z,2.40
2019-03-03T22:57:14.946Z,3.15
2019-03-03T22:59:54.649Z,2.20
2019-03-03T23:02:34.545Z,2.30
2019-03-03T23:05:33.676Z,2.67
2019-03-03T23:08:24.164Z,1.92
2019-03-03T23:11:47.859Z,2.20
2019-03-03T23:14:44.909Z,2.40
2019-03-03T23:18:14.927Z,5.72
2019-03-03T23:21:37.531Z,2.00
2019-03-03T23:25:05.954Z,2.02
2019-03-03T23:27:45.751Z,2.30
2019-03-03T23:30:25.601Z,2.25
2019-03-03T23:33:05.394Z,2.22
2019-03-03T23:35:45.143Z,1.92
2019-03-03T23:38:24.921Z,1.95
2019-03-03T23:41:05.924Z,1.85
2019-03-03T23:43:45.640Z,3.02
2019-03-03T23:46:25.449Z,2.95
2019-03-03T23:49:05.250Z,2.25
2019-03-03T23:51:44.997Z,5.65
2019-03-03T23:54:25.217Z,2.37
2019-03-03T23:57:04.987Z,2.42
2019-03-03T23:59:44.765Z,2.90
